createdAt,value
2022-08-27T00:00:11.382Z,11.20
2022-08-27T00:01:12.753Z,10.00
2022-08-27T00:02:11.410Z,10.70
2022-08-27T00:03:11.371Z,10.30
2022-08-27T00:04:11.398Z,10.80
2022-08-27T00:05:11.332Z,11.00
2022-08-27T00:06:11.355Z,10.40
2022-08-27T00:07:11.314Z,11.20
2022-08-27T00:08:11.448Z,10.60
2022-08-27T00:09:11.296Z,10.70
2022-08-27T00:10:11.284Z,11.50
2022-08-27T00:11:11.294Z,11.10
2022-08-27T00:12:11.285Z,11.70
2022-08-27T00:13:11.255Z,11.30
2022-08-27T00:14:11.246Z,10.80
2022-08-27T00:15:11.235Z,10.60
2022-08-27T00:16:11.280Z,11.00
2022-08-27T00:17:11.208Z,10.50
2022-08-27T00:18:11.392Z,11.00
2022-08-27T00:19:11.196Z,10.50
2022-08-27T00:20:11.190Z,11.10
2022-08-27T00:21:11.219Z,10.80
2022-08-27T00:22:11.169Z,10.90
2022-08-27T00:23:11.152Z,10.50
2022-08-27T00:24:11.154Z,10.40
2022-08-27T00:25:11.142Z,10.20
2022-08-27T00:26:11.151Z,10.60
2022-08-27T00:27:11.111Z,9.30
2022-08-27T00:28:11.272Z,10.40
2022-08-27T00:29:11.102Z,9.90
2022-08-27T00:30:11.083Z,9.50
2022-08-27T00:31:12.237Z,10.30
2022-08-27T00:32:11.122Z,9.90
2022-08-27T00:33:11.054Z,9.60
2022-08-27T00:34:13.044Z,10.40
2022-08-27T00:35:11.037Z,9.40
2022-08-27T00:36:11.056Z,10.10
2022-08-27T00:37:11.015Z,9.20
2022-08-27T00:38:11.172Z,9.70
2022-08-27T00:39:10.996Z,9.40
2022-08-27T00:40:11.010Z,8.90
2022-08-27T00:41:10.998Z,9.70
2022-08-27T00:42:10.969Z,9.60
2022-08-27T00:43:10.956Z,9.90
2022-08-27T00:44:10.949Z,8.90
2022-08-27T00:45:10.932Z,8.90
2022-08-27T00:46:10.982Z,8.10
2022-08-27T00:47:10.914Z,8.70
2022-08-27T00:48:11.164Z,8.10
2022-08-27T00:49:10.908Z,8.30
2022-08-27T00:50:10.889Z,8.20
2022-08-27T00:51:10.891Z,8.20
2022-08-27T00:52:10.864Z,8.30
2022-08-27T00:53:10.852Z,7.70
2022-08-27T00:54:10.843Z,7.40
2022-08-27T00:55:11.837Z,7.90
2022-08-27T00:56:10.854Z,7.90
2022-08-27T00:57:10.814Z,6.70
2022-08-27T00:58:11.046Z,7.30
2022-08-27T00:59:10.796Z,7.30
2022-08-27T01:00:10.786Z,6.40
2022-08-27T01:01:10.829Z,6.70
2022-08-27T01:02:10.828Z,7.10
2022-08-27T01:03:10.754Z,8.20
2022-08-27T01:04:10.747Z,6.70
2022-08-27T01:05:10.734Z,6.60
2022-08-27T01:06:10.730Z,6.80
2022-08-27T01:07:11.737Z,6.90
2022-08-27T01:08:10.888Z,6.40
2022-08-27T01:09:10.690Z,7.20
2022-08-27T01:10:10.688Z,6.80
2022-08-27T01:11:10.670Z,6.70
2022-08-27T01:12:10.692Z,6.70
2022-08-27T01:13:10.651Z,6.10
2022-08-27T01:14:10.648Z,6.70
2022-08-27T01:15:11.027Z,6.50
2022-08-27T01:16:10.671Z,6.70
2022-08-27T01:17:10.632Z,6.60
2022-08-27T01:18:10.688Z,7.00
2022-08-27T01:19:10.594Z,7.10
2022-08-27T01:20:10.586Z,7.20
2022-08-27T01:21:10.575Z,7.50
2022-08-27T01:22:10.594Z,7.40
2022-08-27T01:23:11.555Z,7.60
2022-08-27T01:24:10.555Z,7.40
2022-08-27T01:25:10.536Z,7.50
2022-08-27T01:26:10.529Z,8.10
2022-08-27T01:27:13.408Z,8.30
2022-08-27T01:28:10.716Z,8.20
2022-08-27T01:29:10.500Z,7.70
2022-08-27T01:30:10.487Z,8.30
2022-08-27T01:31:10.515Z,7.60
2022-08-27T01:32:10.489Z,7.20
2022-08-27T01:33:10.451Z,7.60
2022-08-27T01:34:10.450Z,7.20
2022-08-27T01:35:10.431Z,7.90
2022-08-27T01:36:10.429Z,7.60
2022-08-27T01:37:10.443Z,8.00
2022-08-27T01:38:18.314Z,7.20
2022-08-27T01:39:11.400Z,7.50
2022-08-27T01:40:10.436Z,7.80
2022-08-27T01:41:10.424Z,8.00
2022-08-27T01:42:10.393Z,7.30
2022-08-27T01:43:10.353Z,8.50
2022-08-27T01:44:10.362Z,7.70
2022-08-27T01:45:10.333Z,8.40
2022-08-27T01:46:10.326Z,8.30
2022-08-27T01:47:10.336Z,9.00
2022-08-27T01:48:10.429Z,8.60
2022-08-27T01:49:10.327Z,9.30
2022-08-27T01:50:10.296Z,8.60
2022-08-27T01:51:10.276Z,9.30
2022-08-27T01:52:10.290Z,8.70
2022-08-27T01:53:10.269Z,8.80
2022-08-27T01:54:10.248Z,8.50
2022-08-27T01:55:10.235Z,8.60
2022-08-27T01:56:10.238Z,9.60
2022-08-27T01:57:10.239Z,8.80
2022-08-27T01:58:10.350Z,8.90
2022-08-27T01:59:10.190Z,9.40
2022-08-27T02:00:10.191Z,9.50
2022-08-27T02:01:10.272Z,8.70
2022-08-27T02:02:10.247Z,9.00
2022-08-27T02:03:10.155Z,8.70
2022-08-27T02:04:10.150Z,8.50
2022-08-27T02:05:10.133Z,8.90
2022-08-27T02:06:10.123Z,8.90
2022-08-27T02:07:10.143Z,8.20
2022-08-27T02:08:10.263Z,8.30
2022-08-27T02:09:10.094Z,8.10
2022-08-27T02:10:10.086Z,8.80
2022-08-27T02:11:10.090Z,8.70
2022-08-27T02:12:10.085Z,9.30
2022-08-27T02:13:10.057Z,9.30
2022-08-27T02:14:12.866Z,8.60
2022-08-27T02:15:10.044Z,8.30
2022-08-27T02:16:10.108Z,8.60
2022-08-27T02:17:10.037Z,9.20
2022-08-27T02:18:10.106Z,9.40
2022-08-27T02:19:09.996Z,9.20
2022-08-27T02:20:09.991Z,9.30
2022-08-27T02:21:09.989Z,10.10
2022-08-27T02:22:10.016Z,9.70
2022-08-27T02:23:09.951Z,9.80
2022-08-27T02:24:09.940Z,9.70
2022-08-27T02:25:10.211Z,10.30
2022-08-27T02:26:09.922Z,10.50
2022-08-27T02:27:09.942Z,10.10
2022-08-27T02:28:10.099Z,10.70
2022-08-27T02:29:09.894Z,10.40
2022-08-27T02:30:09.880Z,10.30
2022-08-27T02:31:09.922Z,11.80
2022-08-27T02:32:22.276Z,9.90
2022-08-27T02:33:10.876Z,11.10
2022-08-27T02:34:09.876Z,10.20
2022-08-27T02:35:09.845Z,10.30
2022-08-27T02:36:09.816Z,11.10
2022-08-27T02:37:09.836Z,11.00
2022-08-27T02:38:09.938Z,12.60
2022-08-27T02:39:09.795Z,11.30
2022-08-27T02:40:09.858Z,11.50
2022-08-27T02:41:09.776Z,11.20
2022-08-27T02:42:09.785Z,12.50
2022-08-27T02:43:09.749Z,11.60
2022-08-27T02:44:11.174Z,12.60
2022-08-27T02:45:09.739Z,12.20
2022-08-27T02:46:09.791Z,12.00
2022-08-27T02:47:09.738Z,12.30
2022-08-27T02:48:09.779Z,12.80
2022-08-27T02:49:09.717Z,12.60
2022-08-27T02:50:09.682Z,13.10
2022-08-27T02:51:09.676Z,12.40
2022-08-27T02:52:09.681Z,11.50
2022-08-27T02:53:09.652Z,12.30
2022-08-27T02:54:09.843Z,11.40
2022-08-27T02:55:09.634Z,12.50
2022-08-27T02:56:09.683Z,12.90
2022-08-27T02:57:09.645Z,12.20
2022-08-27T02:58:10.004Z,13.80
2022-08-27T02:59:09.592Z,12.30
2022-08-27T03:00:09.576Z,12.70
2022-08-27T03:01:11.259Z,12.60
2022-08-27T03:02:09.686Z,12.10
2022-08-27T03:03:09.546Z,13.10
2022-08-27T03:04:09.539Z,14.10
2022-08-27T03:05:09.531Z,14.00
2022-08-27T03:06:09.531Z,15.40
2022-08-27T03:07:18.831Z,14.80
2022-08-27T03:08:10.658Z,14.30
2022-08-27T03:09:09.490Z,15.10
2022-08-27T03:10:09.470Z,15.30
2022-08-27T03:11:09.470Z,16.00
2022-08-27T03:12:09.482Z,15.30
2022-08-27T03:13:09.459Z,15.80
2022-08-27T03:14:09.441Z,15.20
2022-08-27T03:15:09.434Z,14.90
2022-08-27T03:16:09.458Z,14.40
2022-08-27T03:17:09.434Z,15.50
2022-08-27T03:18:09.632Z,14.80
2022-08-27T03:19:09.386Z,15.80
2022-08-27T03:20:09.383Z,14.10
2022-08-27T03:21:09.380Z,15.00
2022-08-27T03:22:09.375Z,14.40
2022-08-27T03:23:09.347Z,14.20
2022-08-27T03:24:11.585Z,14.10
2022-08-27T03:25:10.325Z,14.80
2022-08-27T03:26:09.316Z,14.30
2022-08-27T03:27:09.353Z,14.70
2022-08-27T03:28:22.665Z,14.00
2022-08-27T03:29:10.295Z,13.60
2022-08-27T03:30:09.268Z,13.60
2022-08-27T03:31:09.297Z,14.20
2022-08-27T03:32:09.278Z,13.80
2022-08-27T03:33:09.248Z,13.90
2022-08-27T03:34:09.233Z,14.00
2022-08-27T03:35:09.228Z,13.20
2022-08-27T03:36:09.210Z,13.60
2022-08-27T03:37:09.230Z,13.70
2022-08-27T03:38:09.407Z,13.60
2022-08-27T03:39:09.183Z,13.90
2022-08-27T03:40:09.196Z,13.30
2022-08-27T03:41:09.163Z,12.10
2022-08-27T03:42:09.172Z,12.60
2022-08-27T03:43:09.144Z,13.20
2022-08-27T03:44:09.133Z,12.90
2022-08-27T03:45:09.127Z,13.20
2022-08-27T03:46:09.137Z,12.90
2022-08-27T03:47:09.253Z,12.80
2022-08-27T03:48:09.266Z,12.10
2022-08-27T03:49:09.085Z,11.20
2022-08-27T03:50:09.075Z,12.30
2022-08-27T03:51:09.065Z,12.80
2022-08-27T03:52:09.077Z,13.20
2022-08-27T03:53:09.044Z,12.50
2022-08-27T03:54:09.029Z,12.90
2022-08-27T03:55:09.021Z,12.90
2022-08-27T03:56:09.010Z,12.70
2022-08-27T03:57:09.026Z,13.90
2022-08-27T03:58:09.113Z,12.80
2022-08-27T03:59:08.983Z,12.10
2022-08-27T04:00:08.968Z,12.00
2022-08-27T04:01:08.973Z,12.50
2022-08-27T04:02:09.015Z,12.40
2022-08-27T04:03:08.990Z,11.50
2022-08-27T04:04:08.928Z,11.70
2022-08-27T04:05:08.922Z,12.10
2022-08-27T04:06:08.902Z,12.30
2022-08-27T04:07:08.932Z,12.00
2022-08-27T04:08:08.982Z,11.70
2022-08-27T04:09:08.876Z,11.80
2022-08-27T04:10:08.873Z,12.00
2022-08-27T04:11:08.855Z,12.00
2022-08-27T04:12:08.874Z,11.90
2022-08-27T04:13:08.938Z,11.60
2022-08-27T04:14:25.379Z,11.70
2022-08-27T04:15:09.774Z,11.90
2022-08-27T04:16:08.809Z,12.10
2022-08-27T04:17:08.767Z,12.10
2022-08-27T04:18:08.796Z,11.70
2022-08-27T04:19:08.776Z,12.90
2022-08-27T04:20:34.191Z,12.10
2022-08-27T04:21:09.749Z,11.90
2022-08-27T04:22:08.760Z,11.80
2022-08-27T04:23:08.690Z,12.00
2022-08-27T04:24:08.663Z,13.00
2022-08-27T04:25:10.466Z,14.50
2022-08-27T04:26:08.645Z,14.10
2022-08-27T04:27:08.680Z,14.40
2022-08-27T04:28:08.625Z,13.30
2022-08-27T04:29:08.672Z,14.30
2022-08-27T04:30:08.662Z,13.90
2022-08-27T04:31:16.474Z,14.10
2022-08-27T04:32:09.611Z,13.60
2022-08-27T04:33:08.574Z,13.70
2022-08-27T04:34:08.563Z,13.50
2022-08-27T04:35:08.555Z,13.00
2022-08-27T04:36:08.544Z,13.90
2022-08-27T04:37:08.535Z,13.50
2022-08-27T04:38:08.669Z,14.60
2022-08-27T04:39:08.526Z,13.60
2022-08-27T04:40:08.588Z,14.20
2022-08-27T04:41:08.497Z,13.40
2022-08-27T04:42:08.478Z,14.30
2022-08-27T04:43:08.508Z,14.40
2022-08-27T04:44:08.478Z,13.60
2022-08-27T04:45:08.456Z,14.70
2022-08-27T04:46:08.484Z,14.40
2022-08-27T04:47:08.451Z,14.50
2022-08-27T04:48:08.519Z,13.20
2022-08-27T04:49:10.185Z,14.10
2022-08-27T04:50:08.400Z,14.80
2022-08-27T04:51:08.392Z,14.80
2022-08-27T04:52:08.382Z,13.70
2022-08-27T04:53:08.393Z,15.90
2022-08-27T04:54:08.363Z,14.60
2022-08-27T04:55:08.352Z,13.50
2022-08-27T04:56:08.344Z,13.50
2022-08-27T04:57:09.333Z,14.30
2022-08-27T04:58:08.388Z,14.60
2022-08-27T04:59:08.313Z,14.40
2022-08-27T05:00:08.295Z,14.60
2022-08-27T05:01:08.497Z,14.40
2022-08-27T05:02:08.276Z,13.40
2022-08-27T05:03:08.296Z,13.40
2022-08-27T05:04:08.258Z,13.20
2022-08-27T05:05:08.300Z,12.80
2022-08-27T05:06:08.237Z,13.50
2022-08-27T05:07:08.227Z,13.70
2022-08-27T05:08:08.277Z,13.80
2022-08-27T05:09:08.208Z,14.20
2022-08-27T05:10:08.200Z,15.70
2022-08-27T05:11:08.189Z,15.20
2022-08-27T05:12:08.173Z,16.10
2022-08-27T05:13:08.191Z,15.90
2022-08-27T05:14:08.158Z,15.70
2022-08-27T05:15:08.180Z,15.30
2022-08-27T05:16:08.195Z,15.70
2022-08-27T05:17:08.131Z,15.80
2022-08-27T05:18:08.216Z,17.80
2022-08-27T05:19:08.111Z,17.70
2022-08-27T05:20:08.093Z,18.50
2022-08-27T05:21:08.085Z,18.20
2022-08-27T05:22:08.074Z,17.40
2022-08-27T05:23:08.092Z,17.80
2022-08-27T05:24:08.053Z,17.10
2022-08-27T05:25:08.047Z,16.50
2022-08-27T05:26:08.036Z,17.90
2022-08-27T05:27:08.025Z,17.40
2022-08-27T05:28:08.106Z,17.80
2022-08-27T05:29:08.007Z,16.60
2022-08-27T05:30:07.994Z,16.00
2022-08-27T05:31:08.016Z,16.60
2022-08-27T05:32:07.971Z,17.10
2022-08-27T05:33:07.994Z,16.80
2022-08-27T05:34:10.406Z,15.60
2022-08-27T05:35:10.354Z,16.10
2022-08-27T05:36:07.938Z,16.20
2022-08-27T05:37:07.920Z,15.00
2022-08-27T05:38:07.938Z,16.40
2022-08-27T05:39:07.901Z,15.30
2022-08-27T05:40:07.948Z,15.20
2022-08-27T05:41:07.882Z,15.20
2022-08-27T05:42:07.881Z,15.30
2022-08-27T05:43:07.890Z,16.00
2022-08-27T05:44:30.204Z,16.50
2022-08-27T05:45:08.843Z,15.10
2022-08-27T05:46:07.860Z,15.70
2022-08-27T05:47:07.824Z,15.50
2022-08-27T05:48:07.927Z,14.40
2022-08-27T05:49:07.805Z,15.30
2022-08-27T05:50:07.787Z,15.70
2022-08-27T05:51:07.798Z,15.50
2022-08-27T05:52:07.767Z,14.90
2022-08-27T05:53:07.785Z,15.20
2022-08-27T05:54:08.891Z,14.10
2022-08-27T05:55:07.750Z,15.10
2022-08-27T05:56:07.740Z,14.30
2022-08-27T05:57:07.726Z,13.60
2022-08-27T05:58:07.791Z,13.60
2022-08-27T05:59:07.699Z,14.00
2022-08-27T06:00:07.695Z,13.70
2022-08-27T06:01:10.347Z,14.10
2022-08-27T06:02:07.698Z,13.40
2022-08-27T06:03:07.687Z,14.60
2022-08-27T06:04:07.665Z,13.80
2022-08-27T06:05:07.678Z,12.60
2022-08-27T06:06:07.623Z,14.40
2022-08-27T06:07:07.619Z,13.30
2022-08-27T06:08:07.692Z,13.80
2022-08-27T06:09:07.604Z,13.90
2022-08-27T06:10:07.582Z,13.50
2022-08-27T06:11:07.582Z,14.20
2022-08-27T06:12:07.564Z,13.40
2022-08-27T06:13:07.583Z,13.40
2022-08-27T06:14:07.544Z,14.00
2022-08-27T06:15:07.535Z,14.00
2022-08-27T06:16:07.584Z,14.40
2022-08-27T06:17:07.519Z,14.80
2022-08-27T06:18:07.557Z,14.30
2022-08-27T06:19:07.497Z,14.30
2022-08-27T06:20:12.799Z,15.20
2022-08-27T06:21:07.478Z,14.30
2022-08-27T06:22:10.289Z,15.50
2022-08-27T06:23:07.480Z,14.50
2022-08-27T06:24:07.446Z,13.90
2022-08-27T06:25:07.438Z,13.90
2022-08-27T06:26:07.421Z,15.00
2022-08-27T06:27:07.422Z,13.90
2022-08-27T06:28:08.661Z,13.30
2022-08-27T06:29:07.402Z,13.90
2022-08-27T06:30:07.382Z,14.10
2022-08-27T06:31:07.449Z,13.60
2022-08-27T06:32:07.382Z,15.40
2022-08-27T06:33:07.392Z,14.80
2022-08-27T06:34:07.901Z,14.40
2022-08-27T06:35:07.348Z,15.10
2022-08-27T06:36:07.322Z,14.70
2022-08-27T06:37:07.314Z,14.40
2022-08-27T06:38:07.408Z,15.40
2022-08-27T06:39:07.295Z,15.40
2022-08-27T06:40:07.324Z,15.20
2022-08-27T06:41:07.276Z,15.40
2022-08-27T06:42:08.267Z,15.30
2022-08-27T06:43:07.263Z,15.30
2022-08-27T06:44:07.266Z,15.60
2022-08-27T06:45:07.252Z,15.60
2022-08-27T06:46:07.302Z,15.90
2022-08-27T06:47:07.208Z,15.60
2022-08-27T06:48:07.207Z,15.30
2022-08-27T06:49:07.219Z,15.30
2022-08-27T06:50:07.181Z,15.70
2022-08-27T06:51:07.171Z,15.60
2022-08-27T06:52:07.157Z,16.50
2022-08-27T06:53:07.151Z,16.70
2022-08-27T06:54:07.160Z,15.80
2022-08-27T06:55:07.150Z,16.90
2022-08-27T06:56:07.112Z,17.00
2022-08-27T06:57:07.112Z,16.80
2022-08-27T06:58:07.126Z,17.90
2022-08-27T06:59:12.021Z,17.30
2022-08-27T07:00:08.083Z,16.00
2022-08-27T07:01:07.118Z,16.50
2022-08-27T07:02:07.142Z,16.40
2022-08-27T07:03:07.055Z,16.50
2022-08-27T07:04:07.065Z,16.90
2022-08-27T07:05:07.025Z,15.10
2022-08-27T07:06:07.023Z,15.20
2022-08-27T07:07:07.008Z,16.20
2022-08-27T07:08:07.064Z,15.60
2022-08-27T07:09:07.026Z,16.50
2022-08-27T07:10:06.978Z,15.60
2022-08-27T07:11:06.968Z,15.80
2022-08-27T07:12:06.957Z,17.00
2022-08-27T07:13:06.957Z,16.80
2022-08-27T07:14:06.966Z,15.60
2022-08-27T07:15:06.931Z,17.40
2022-08-27T07:16:06.991Z,17.10
2022-08-27T07:17:07.027Z,16.60
2022-08-27T07:18:06.971Z,16.70
2022-08-27T07:19:06.911Z,16.30
2022-08-27T07:20:06.872Z,17.70
2022-08-27T07:21:06.871Z,16.50
2022-08-27T07:22:06.853Z,17.00
2022-08-27T07:23:10.903Z,17.50
2022-08-27T07:24:06.854Z,18.40
2022-08-27T07:25:06.832Z,16.10
2022-08-27T07:26:06.826Z,16.80
2022-08-27T07:27:06.814Z,16.60
2022-08-27T07:28:06.802Z,15.70
2022-08-27T07:29:06.823Z,15.70
2022-08-27T07:30:06.776Z,15.60
2022-08-27T07:31:06.801Z,16.40
2022-08-27T07:32:06.764Z,15.60
2022-08-27T07:33:06.747Z,15.60
2022-08-27T07:34:06.756Z,16.60
2022-08-27T07:35:06.729Z,15.60
2022-08-27T07:36:06.708Z,15.20
2022-08-27T07:37:06.716Z,15.60
2022-08-27T07:38:06.739Z,15.70
2022-08-27T07:39:06.708Z,15.40
2022-08-27T07:40:06.715Z,15.50
2022-08-27T07:41:06.680Z,15.80
2022-08-27T07:42:06.651Z,16.30
2022-08-27T07:43:06.657Z,15.00
2022-08-27T07:44:06.651Z,15.10
2022-08-27T07:45:06.630Z,14.50
2022-08-27T07:46:06.667Z,14.80
2022-08-27T07:47:06.603Z,15.30
2022-08-27T07:48:06.598Z,15.30
2022-08-27T07:49:06.612Z,14.60
2022-08-27T07:50:06.584Z,14.10
2022-08-27T07:51:06.571Z,14.70
2022-08-27T07:52:06.546Z,15.20
2022-08-27T07:53:06.543Z,14.40
2022-08-27T07:54:06.554Z,14.90
2022-08-27T07:55:06.524Z,14.60
2022-08-27T07:56:06.523Z,13.70
2022-08-27T07:57:06.508Z,13.50
2022-08-27T07:58:06.631Z,14.50
2022-08-27T07:59:07.507Z,13.20
2022-08-27T08:00:06.485Z,14.70
2022-08-27T08:01:06.518Z,14.10
2022-08-27T08:02:06.486Z,14.10
2022-08-27T08:03:06.439Z,14.50
2022-08-27T08:04:06.448Z,13.60
2022-08-27T08:05:06.430Z,14.00
2022-08-27T08:06:06.412Z,14.60
2022-08-27T08:07:06.400Z,14.00
2022-08-27T08:08:06.388Z,14.00
2022-08-27T08:09:06.401Z,14.80
2022-08-27T08:10:06.371Z,15.30
2022-08-27T08:11:06.366Z,14.80
2022-08-27T08:12:06.362Z,13.60
2022-08-27T08:13:06.343Z,13.90
2022-08-27T08:14:06.354Z,12.80
2022-08-27T08:15:06.314Z,13.00
2022-08-27T08:16:06.306Z,12.50
2022-08-27T08:17:08.827Z,12.80
2022-08-27T08:18:06.285Z,12.90
2022-08-27T08:19:06.308Z,11.40
2022-08-27T08:20:21.712Z,12.40
2022-08-27T08:21:07.256Z,12.60
2022-08-27T08:22:06.275Z,13.40
2022-08-27T08:23:06.238Z,12.60
2022-08-27T08:24:06.248Z,13.10
2022-08-27T08:25:06.217Z,12.30
2022-08-27T08:26:06.224Z,13.20
2022-08-27T08:27:07.682Z,13.10
2022-08-27T08:28:06.179Z,12.90
2022-08-27T08:29:06.199Z,12.50
2022-08-27T08:30:06.160Z,12.50
2022-08-27T08:31:06.184Z,12.30
2022-08-27T08:32:06.140Z,13.60
2022-08-27T08:33:06.139Z,12.90
2022-08-27T08:34:06.147Z,13.00
2022-08-27T08:35:06.112Z,12.90
2022-08-27T08:36:06.111Z,12.60
2022-08-27T08:37:06.093Z,12.40
2022-08-27T08:38:06.074Z,11.90
2022-08-27T08:39:06.094Z,11.90
2022-08-27T08:40:06.087Z,11.50
2022-08-27T08:41:06.056Z,11.50
2022-08-27T08:42:06.035Z,11.10
2022-08-27T08:43:06.033Z,11.60
2022-08-27T08:44:06.043Z,11.60
2022-08-27T08:45:06.016Z,10.80
2022-08-27T08:46:06.034Z,10.70
2022-08-27T08:47:05.995Z,10.10
2022-08-27T08:48:05.997Z,11.60
2022-08-27T08:49:05.999Z,12.30
2022-08-27T08:50:05.976Z,11.30
2022-08-27T08:51:05.949Z,11.30
2022-08-27T08:52:05.939Z,12.00
2022-08-27T08:53:05.929Z,11.30
2022-08-27T08:54:05.959Z,10.90
2022-08-27T08:55:05.913Z,10.90
2022-08-27T08:56:05.910Z,11.20
2022-08-27T08:57:05.895Z,11.70
2022-08-27T08:58:05.872Z,11.50
2022-08-27T08:59:05.892Z,11.10
2022-08-27T09:00:05.852Z,13.80
2022-08-27T09:01:05.857Z,12.60
2022-08-27T09:02:09.093Z,11.60
2022-08-27T09:03:06.825Z,11.80
2022-08-27T09:04:05.896Z,12.20
2022-08-27T09:05:05.805Z,12.50
2022-08-27T09:06:05.798Z,11.90
2022-08-27T09:07:05.785Z,12.80
2022-08-27T09:08:30.969Z,11.20
2022-08-27T09:09:06.786Z,11.80
2022-08-27T09:10:05.748Z,11.60
2022-08-27T09:11:05.747Z,12.00
2022-08-27T09:12:05.731Z,11.80
2022-08-27T09:13:05.727Z,11.60
2022-08-27T09:14:08.310Z,13.20
2022-08-27T09:15:05.735Z,12.30
2022-08-27T09:16:05.689Z,12.60
2022-08-27T09:17:10.748Z,14.00
2022-08-27T09:18:06.682Z,14.90
2022-08-27T09:19:05.987Z,13.80
2022-08-27T09:20:05.670Z,15.80
2022-08-27T09:21:08.791Z,15.20
2022-08-27T09:22:05.630Z,14.60
2022-08-27T09:23:05.682Z,14.10
2022-08-27T09:24:05.605Z,14.00
2022-08-27T09:25:05.630Z,15.90
2022-08-27T09:26:05.583Z,14.50
2022-08-27T09:27:05.583Z,14.70
2022-08-27T09:28:05.564Z,14.60
2022-08-27T09:29:05.563Z,14.40
2022-08-27T09:30:05.573Z,14.40
2022-08-27T09:31:05.589Z,14.70
2022-08-27T09:32:05.524Z,13.10
2022-08-27T09:33:05.516Z,13.20
2022-08-27T09:34:05.506Z,13.10
2022-08-27T09:35:05.526Z,14.00
2022-08-27T09:36:05.486Z,14.60
2022-08-27T09:37:05.479Z,13.80
2022-08-27T09:38:05.469Z,14.10
2022-08-27T09:39:05.457Z,14.10
2022-08-27T09:40:05.571Z,14.90
2022-08-27T09:41:06.441Z,13.40
2022-08-27T09:42:05.424Z,14.00
2022-08-27T09:43:05.419Z,13.90
2022-08-27T09:44:05.409Z,13.00
2022-08-27T09:45:05.421Z,13.30
2022-08-27T09:46:05.457Z,13.50
2022-08-27T09:47:05.388Z,13.10
2022-08-27T09:48:05.361Z,12.70
2022-08-27T09:49:05.361Z,12.40
2022-08-27T09:50:06.908Z,12.30
2022-08-27T09:51:05.334Z,12.20
2022-08-27T09:52:05.334Z,11.80
2022-08-27T09:53:05.314Z,11.60
2022-08-27T09:54:05.303Z,11.60
2022-08-27T09:55:05.437Z,11.80
2022-08-27T09:56:05.283Z,10.80
2022-08-27T09:57:05.277Z,11.00
2022-08-27T09:58:05.279Z,11.10
2022-08-27T09:59:05.256Z,11.10
2022-08-27T10:00:05.269Z,10.90
2022-08-27T10:01:05.271Z,10.40
2022-08-27T10:02:06.708Z,10.60
2022-08-27T10:03:06.218Z,11.10
2022-08-27T10:04:05.246Z,10.40
2022-08-27T10:05:05.219Z,11.20
2022-08-27T10:06:05.197Z,10.20
2022-08-27T10:07:05.178Z,9.60
2022-08-27T10:08:05.158Z,10.10
2022-08-27T10:09:07.253Z,10.50
2022-08-27T10:10:05.170Z,10.30
2022-08-27T10:11:05.131Z,9.40
2022-08-27T10:12:05.121Z,10.60
2022-08-27T10:13:10.311Z,10.40
2022-08-27T10:14:06.107Z,10.60
2022-08-27T10:15:05.113Z,9.50
2022-08-27T10:16:05.121Z,10.50
2022-08-27T10:17:05.074Z,8.40
2022-08-27T10:18:05.101Z,9.80
2022-08-27T10:19:05.064Z,9.80
2022-08-27T10:20:05.099Z,10.00
2022-08-27T10:21:05.894Z,9.40
2022-08-27T10:22:05.024Z,8.80
2022-08-27T10:23:05.016Z,9.60
2022-08-27T10:24:04.996Z,9.00
2022-08-27T10:25:05.024Z,9.00
2022-08-27T10:26:05.008Z,8.70
2022-08-27T10:27:04.977Z,8.10
2022-08-27T10:28:05.057Z,8.80
2022-08-27T10:29:04.958Z,9.00
2022-08-27T10:30:04.969Z,8.70
2022-08-27T10:31:04.938Z,8.40
2022-08-27T10:32:04.992Z,8.50
2022-08-27T10:33:04.918Z,8.30
2022-08-27T10:34:04.902Z,8.00
2022-08-27T10:35:04.942Z,7.90
2022-08-27T10:36:04.891Z,7.90
2022-08-27T10:37:07.478Z,8.50
2022-08-27T10:38:04.892Z,8.10
2022-08-27T10:39:04.853Z,8.20
2022-08-27T10:40:04.915Z,8.10
2022-08-27T10:41:04.833Z,8.70
2022-08-27T10:42:04.832Z,8.20
2022-08-27T10:43:04.815Z,7.90
2022-08-27T10:44:04.824Z,8.10
2022-08-27T10:45:04.822Z,8.60
2022-08-27T10:46:04.843Z,7.70
2022-08-27T10:47:05.724Z,8.20
2022-08-27T10:48:04.796Z,8.10
2022-08-27T10:49:04.757Z,7.40
2022-08-27T10:50:05.121Z,7.80
2022-08-27T10:51:04.728Z,8.50
2022-08-27T10:52:08.224Z,7.30
2022-08-27T10:53:04.718Z,7.70
2022-08-27T10:54:04.718Z,7.30
2022-08-27T10:55:07.000Z,8.10
2022-08-27T10:56:04.680Z,6.90
2022-08-27T10:57:28.604Z,7.40
2022-08-27T10:58:05.661Z,7.20
2022-08-27T10:59:04.651Z,6.90
2022-08-27T11:00:04.672Z,6.70
2022-08-27T11:01:04.705Z,7.20
2022-08-27T11:02:04.698Z,7.30
2022-08-27T11:03:04.614Z,6.50
2022-08-27T11:04:04.611Z,6.10
2022-08-27T11:05:04.611Z,6.40
2022-08-27T11:06:04.583Z,6.60
2022-08-27T11:07:04.565Z,5.70
2022-08-27T11:08:04.619Z,6.20
2022-08-27T11:09:07.577Z,6.60
2022-08-27T11:10:04.565Z,7.00
2022-08-27T11:11:35.136Z,6.00
2022-08-27T11:12:14.650Z,6.90
2022-08-27T11:13:05.502Z,7.00
2022-08-27T11:14:04.497Z,10.00
2022-08-27T11:15:04.506Z,6.40
2022-08-27T11:16:04.531Z,6.00
2022-08-27T11:17:04.462Z,5.50
2022-08-27T11:18:04.499Z,5.30
2022-08-27T11:19:04.449Z,5.80
2022-08-27T11:20:04.470Z,5.80
2022-08-27T11:21:04.430Z,6.10
2022-08-27T11:22:04.425Z,5.80
2022-08-27T11:23:04.403Z,6.30
2022-08-27T11:24:04.399Z,5.80
2022-08-27T11:25:04.410Z,6.00
2022-08-27T11:26:04.373Z,5.90
2022-08-27T11:27:04.392Z,6.40
2022-08-27T11:28:04.407Z,6.70
2022-08-27T11:29:04.343Z,5.30
2022-08-27T11:30:04.377Z,6.00
2022-08-27T11:31:04.331Z,5.50
2022-08-27T11:32:04.326Z,5.90
2022-08-27T11:33:04.297Z,5.90
2022-08-27T11:34:04.298Z,6.00
2022-08-27T11:35:04.306Z,5.60
2022-08-27T11:36:04.276Z,6.00
2022-08-27T11:37:04.257Z,5.70
2022-08-27T11:38:04.311Z,6.40
2022-08-27T11:39:04.244Z,5.70
2022-08-27T11:40:04.319Z,5.90
2022-08-27T11:41:04.236Z,5.80
2022-08-27T11:42:04.217Z,5.30
2022-08-27T11:43:04.219Z,5.30
2022-08-27T11:44:04.201Z,6.00
2022-08-27T11:45:04.208Z,5.50
2022-08-27T11:46:04.179Z,5.80
2022-08-27T11:47:04.189Z,5.20
2022-08-27T11:48:04.312Z,5.70
2022-08-27T11:49:04.152Z,5.90
2022-08-27T11:50:04.202Z,5.00
2022-08-27T11:51:04.150Z,5.40
2022-08-27T11:52:04.139Z,5.10
2022-08-27T11:53:04.104Z,4.90
2022-08-27T11:54:04.093Z,4.50
2022-08-27T11:55:04.106Z,5.20
2022-08-27T11:56:04.075Z,5.00
2022-08-27T11:57:04.076Z,5.00
2022-08-27T11:58:04.221Z,4.40
2022-08-27T11:59:04.046Z,4.50
2022-08-27T12:00:04.066Z,5.00
2022-08-27T12:01:05.019Z,5.00
2022-08-27T12:02:04.036Z,4.90
2022-08-27T12:03:04.089Z,4.50
2022-08-27T12:04:04.056Z,4.40
2022-08-27T12:05:04.020Z,4.10
2022-08-27T12:06:03.991Z,4.70
2022-08-27T12:07:03.980Z,4.40
2022-08-27T12:08:03.971Z,4.70
2022-08-27T12:09:03.967Z,4.70
2022-08-27T12:10:03.972Z,5.00
2022-08-27T12:11:03.942Z,5.10
2022-08-27T12:12:03.923Z,4.70
2022-08-27T12:13:03.905Z,5.20
2022-08-27T12:14:03.904Z,4.40
2022-08-27T12:15:03.934Z,5.00
2022-08-27T12:16:03.947Z,4.90
2022-08-27T12:17:03.871Z,4.90
2022-08-27T12:18:03.956Z,4.40
2022-08-27T12:19:04.460Z,5.20
2022-08-27T12:20:03.886Z,5.20
2022-08-27T12:21:03.828Z,5.80
2022-08-27T12:22:03.825Z,5.40
2022-08-27T12:23:03.808Z,5.70
2022-08-27T12:24:03.797Z,5.60
2022-08-27T12:25:03.825Z,5.40
2022-08-27T12:26:03.777Z,5.20
2022-08-27T12:27:03.759Z,5.10
2022-08-27T12:28:03.757Z,5.10
2022-08-27T12:29:03.747Z,5.20
2022-08-27T12:30:03.765Z,5.10
2022-08-27T12:31:03.720Z,5.40
2022-08-27T12:32:03.718Z,4.60
2022-08-27T12:33:03.701Z,5.20
2022-08-27T12:34:03.716Z,5.30
2022-08-27T12:35:03.708Z,4.90
2022-08-27T12:36:03.701Z,4.90
2022-08-27T12:37:04.235Z,4.60
2022-08-27T12:38:03.652Z,4.40
2022-08-27T12:39:03.642Z,4.40
2022-08-27T12:40:03.708Z,5.10
2022-08-27T12:41:03.635Z,4.30
2022-08-27T12:42:03.614Z,5.10
2022-08-27T12:43:03.605Z,5.50
2022-08-27T12:44:03.595Z,5.30
2022-08-27T12:45:03.604Z,5.00
2022-08-27T12:46:03.576Z,5.10
2022-08-27T12:47:03.603Z,5.30
2022-08-27T12:48:03.565Z,4.80
2022-08-27T12:49:12.741Z,4.80
2022-08-27T12:50:04.565Z,4.30
2022-08-27T12:51:03.529Z,4.30
2022-08-27T12:52:03.529Z,4.40
2022-08-27T12:53:03.499Z,4.30
2022-08-27T12:54:03.505Z,4.40
2022-08-27T12:55:03.530Z,4.90
2022-08-27T12:56:03.480Z,4.40
2022-08-27T12:57:03.461Z,4.30
2022-08-27T12:58:03.469Z,4.60
2022-08-27T12:59:03.453Z,4.30
2022-08-27T13:00:03.522Z,4.50
2022-08-27T13:01:03.551Z,4.50